Time;durP1;ratioP1;P1;durP2;ratioP2;P2;SDS_P1;SDS_P2;PMS_P1;PMS_P2;Temp;Humidity;BMP_temperature;BMP_pressure;BME280_temperature;BME280_humidity;BME280_pressure;Samples;Min_cycle;Max_cycle;Signal;HPM_P1;HPM_P2
2022/10/27 00:00:19;;;;;;;23.90;15.52;;;11.10;99.90;;;;;;2064949;28;20023;-71
2022/10/27 00:01:20;;;;;;;23.63;15.40;;;11.10;99.90;;;;;;2074436;28;20050;-72
2022/10/27 00:02:21;;;;;;;26.33;16.20;;;11.10;99.90;;;;;;2073009;28;20485;-71
2022/10/27 00:03:21;;;;;;;24.90;15.80;;;11.00;99.90;;;;;;2072628;28;20026;-71
2022/10/27 00:04:22;;;;;;;26.50;16.23;;;11.00;99.90;;;;;;2072891;28;20201;-70
2022/10/27 00:05:22;;;;;;;25.88;16.40;;;11.00;99.90;;;;;;2072907;28;20665;-73
2022/10/27 00:06:23;;;;;;;26.17;16.45;;;11.00;99.90;;;;;;2072926;28;20029;-72
2022/10/27 00:07:24;;;;;;;25.25;16.00;;;11.00;99.90;;;;;;2080644;28;20061;-71
2022/10/27 00:08:24;;;;;;;24.25;16.55;;;11.00;99.90;;;;;;2080823;28;20029;-71
2022/10/27 00:09:25;;;;;;;23.52;16.20;;;11.00;99.90;;;;;;2080622;28;20037;-71
2022/10/27 00:10:26;;;;;;;24.38;15.80;;;11.00;99.90;;;;;;2072335;28;20133;-71
2022/10/27 00:11:26;;;;;;;23.10;15.30;;;11.00;99.90;;;;;;2064287;28;20034;-71
2022/10/27 00:12:29;;;;;;;21.85;15.32;;;11.00;99.90;;;;;;2072552;28;20026;-71
2022/10/27 00:13:29;;;;;;;22.77;15.05;;;11.00;99.90;;;;;;2073069;28;20113;-71
2022/10/27 00:14:30;;;;;;;22.10;14.93;;;11.00;99.90;;;;;;2073266;28;20077;-71
2022/10/27 00:15:31;;;;;;;22.23;15.30;;;11.00;99.90;;;;;;2072963;28;20803;-71
2022/10/27 00:16:31;;;;;;;24.27;16.50;;;11.00;99.90;;;;;;2073033;28;20026;-71
2022/10/27 00:17:32;;;;;;;24.23;15.95;;;11.00;99.90;;;;;;2073985;28;20038;-72
2022/10/27 00:18:33;;;;;;;23.98;16.30;;;11.00;99.90;;;;;;2072787;28;20022;-71
2022/10/27 00:19:34;;;;;;;23.98;15.93;;;11.00;99.90;;;;;;2072649;28;20108;-71
2022/10/27 00:20:34;;;;;;;25.60;15.88;;;11.00;99.90;;;;;;2073427;28;20025;-71
2022/10/27 00:21:35;;;;;;;23.63;15.65;;;11.00;99.90;;;;;;2072992;28;20638;-71
2022/10/27 00:22:36;;;;;;;25.08;15.77;;;11.00;99.90;;;;;;2072435;28;20121;-71
2022/10/27 00:23:37;;;;;;;25.23;16.08;;;11.00;99.90;;;;;;2064631;28;20050;-71
2022/10/27 00:24:38;;;;;;;22.67;15.45;;;11.10;99.90;;;;;;2072500;28;20032;-72
2022/10/27 00:25:39;;;;;;;23.00;15.85;;;11.10;99.90;;;;;;2073286;28;20045;-71
2022/10/27 00:26:39;;;;;;;25.67;15.77;;;11.10;99.90;;;;;;2073040;28;20081;-71
2022/10/27 00:27:40;;;;;;;24.05;15.48;;;11.10;99.90;;;;;;2072518;28;20038;-71
2022/10/27 00:28:41;;;;;;;22.73;14.73;;;11.20;99.90;;;;;;2064191;28;20038;-71
2022/10/27 00:29:41;;;;;;;22.73;14.50;;;11.20;99.90;;;;;;2072524;28;20132;-71
2022/10/27 00:30:42;;;;;;;21.38;14.30;;;11.30;99.90;;;;;;2073207;28;20384;-71
2022/10/27 00:31:42;;;;;;;22.10;14.32;;;11.30;99.90;;;;;;2073178;28;20030;-71
2022/10/27 00:32:43;;;;;;;21.45;14.60;;;11.30;99.90;;;;;;2072941;28;20033;-72
2022/10/27 00:33:45;;;;;;;21.73;14.13;;;11.40;99.90;;;;;;2072960;28;20028;-72
2022/10/27 00:34:46;;;;;;;20.35;13.75;;;11.40;99.90;;;;;;2080528;28;20426;-71
2022/10/27 00:35:47;;;;;;;21.20;14.10;;;11.40;99.90;;;;;;2064433;28;20026;-72
2022/10/27 00:36:47;;;;;;;20.98;14.13;;;11.40;99.90;;;;;;2056111;28;20118;-72
2022/10/27 00:37:48;;;;;;;22.10;14.35;;;11.50;99.90;;;;;;2072483;28;20034;-72
2022/10/27 00:38:53;;;;;;;21.90;13.70;;;11.50;99.90;;;;;;2072117;28;20030;-72
2022/10/27 00:39:53;;;;;;;20.20;13.60;;;11.50;99.90;;;;;;2072294;28;20030;-72
2022/10/27 00:40:54;;;;;;;20.95;13.80;;;11.50;99.90;;;;;;2071936;28;20041;-72
2022/10/27 00:41:54;;;;;;;18.70;13.40;;;11.60;99.90;;;;;;2071559;28;20037;-71
2022/10/27 00:42:55;;;;;;;19.52;13.57;;;11.60;99.90;;;;;;2072126;28;20050;-71
2022/10/27 00:43:57;;;;;;;21.90;13.77;;;11.60;99.90;;;;;;2072825;28;20034;-73
2022/10/27 00:44:58;;;;;;;22.30;13.93;;;11.60;99.90;;;;;;2071969;28;20423;-72
2022/10/27 00:46:08;;;;;;;20.52;13.13;;;11.60;99.90;;;;;;2063566;28;20034;-72
2022/10/27 00:47:08;;;;;;;20.10;13.40;;;11.60;99.90;;;;;;2072267;28;20026;-72
2022/10/27 00:48:09;;;;;;;19.27;13.27;;;11.70;99.90;;;;;;2072051;28;20030;-73
2022/10/27 00:49:12;;;;;;;19.05;13.05;;;11.70;99.90;;;;;;2072442;28;20026;-72
2022/10/27 00:50:20;;;;;;;19.15;13.80;;;11.70;99.90;;;;;;2072754;28;20153;-72
2022/10/27 00:51:22;;;;;;;19.63;12.68;;;11.70;99.90;;;;;;2072932;28;20480;-71
2022/10/27 00:52:32;;;;;;;19.60;13.43;;;11.70;99.90;;;;;;2072902;28;20032;-70
2022/10/27 00:53:33;;;;;;;19.53;13.70;;;11.70;99.90;;;;;;2073201;28;20034;-70
2022/10/27 00:54:39;;;;;;;21.98;13.52;;;11.70;99.90;;;;;;2073112;28;20292;-70
2022/10/27 00:55:40;;;;;;;19.25;12.75;;;11.70;99.90;;;;;;2072430;28;20137;-71
2022/10/27 00:56:41;;;;;;;20.35;12.93;;;11.70;99.90;;;;;;2072938;28;20080;-71
2022/10/27 00:57:46;;;;;;;20.70;13.43;;;11.70;99.90;;;;;;2073224;28;20064;-71
2022/10/27 00:58:47;;;;;;;18.85;12.88;;;11.70;99.90;;;;;;2073404;28;20121;-71
2022/10/27 00:59:48;;;;;;;18.95;12.82;;;11.70;99.90;;;;;;2073452;28;20022;-71
2022/10/27 01:00:49;;;;;;;17.90;13.02;;;11.70;99.90;;;;;;2073188;28;20041;-70
2022/10/27 01:01:51;;;;;;;21.48;13.35;;;11.70;99.90;;;;;;2072403;28;20045;-69
2022/10/27 01:02:52;;;;;;;20.20;13.07;;;11.70;99.90;;;;;;2072788;28;20545;-71
2022/10/27 01:03:53;;;;;;;18.77;12.88;;;11.70;99.90;;;;;;2073435;28;20461;-71
2022/10/27 01:05:16;;;;;;;19.73;13.13;;;11.70;99.90;;;;;;2072666;28;20026;-72
2022/10/27 01:06:17;;;;;;;19.15;12.40;;;11.80;99.90;;;;;;2072889;28;20097;-71
2022/10/27 01:07:19;;;;;;;20.20;12.43;;;11.70;99.90;;;;;;2073150;28;20026;-70
2022/10/27 01:08:22;;;;;;;19.08;12.65;;;11.80;99.90;;;;;;2073362;28;20032;-71
2022/10/27 01:09:23;;;;;;;19.48;12.57;;;11.80;99.90;;;;;;2072515;28;20045;-72
2022/10/27 01:10:25;;;;;;;17.98;12.43;;;11.80;99.90;;;;;;2072613;28;20030;-71
2022/10/27 01:11:25;;;;;;;17.88;12.95;;;11.70;99.90;;;;;;2080369;28;20058;-70
2022/10/27 01:12:26;;;;;;;18.10;12.43;;;11.70;99.90;;;;;;2080664;28;20065;-70
2022/10/27 01:13:27;;;;;;;19.45;12.63;;;11.70;99.90;;;;;;2073101;28;20109;-70
2022/10/27 01:14:27;;;;;;;19.95;12.98;;;11.70;99.90;;;;;;2072551;28;20033;-71
2022/10/27 01:15:36;;;;;;;21.35;13.48;;;11.70;99.90;;;;;;2072766;28;20586;-70
2022/10/27 01:16:51;;;;;;;21.02;14.07;;;11.70;99.90;;;;;;2072737;28;20114;-71
2022/10/27 01:17:57;;;;;;;19.35;13.15;;;11.70;99.90;;;;;;2063620;28;20488;-70
2022/10/27 01:19:24;;;;;;;20.85;13.10;;;11.70;99.90;;;;;;2064665;28;20512;-71
2022/10/27 01:20:43;;;;;;;19.83;13.10;;;11.70;99.90;;;;;;2072555;28;20034;-70
2022/10/27 01:21:53;;;;;;;20.27;13.10;;;11.70;99.90;;;;;;2071311;28;20030;-71
2022/10/27 01:23:24;;;;;;;17.97;12.40;;;11.60;99.90;;;;;;2071977;28;20042;-70
2022/10/27 01:25:29;;;;;;;19.35;12.98;;;11.60;99.90;;;;;;2072676;28;20269;-70
2022/10/27 01:26:53;;;;;;;19.65;13.48;;;11.50;99.90;;;;;;2034932;29;20251;-71
2022/10/27 01:27:59;;;;;;;19.80;13.15;;;11.50;99.90;;;;;;2039346;29;20108;-71
2022/10/27 01:29:30;;;;;;;19.48;13.07;;;11.40;99.90;;;;;;2039491;29;20668;-71
2022/10/27 01:30:46;;;;;;;20.48;12.48;;;11.40;99.90;;;;;;2039671;29;20032;-70
2022/10/27 01:31:54;;;;;;;18.15;12.48;;;11.30;99.90;;;;;;2035256;28;20039;-70
2022/10/27 01:33:14;;;;;;;20.38;12.85;;;11.30;99.90;;;;;;2072134;28;20026;-71
2022/10/27 01:34:29;;;;;;;18.25;12.82;;;11.20;99.90;;;;;;2072676;28;20041;-70
2022/10/27 01:35:36;;;;;;;19.38;12.95;;;11.20;99.90;;;;;;2072189;28;20111;-70
2022/10/27 01:37:12;;;;;;;18.80;12.48;;;11.20;99.90;;;;;;2065042;28;20030;-70
2022/10/27 01:38:32;;;;;;;19.65;13.00;;;11.10;99.90;;;;;;2055550;28;20069;-70
2022/10/27 01:39:41;;;;;;;17.88;12.38;;;11.10;99.90;;;;;;2082898;28;20064;-71
2022/10/27 01:40:47;;;;;;;19.70;13.32;;;11.10;99.90;;;;;;2086849;28;20453;-71
2022/10/27 01:41:56;;;;;;;21.17;12.88;;;11.00;99.90;;;;;;2072617;28;20042;-71
2022/10/27 01:43:06;;;;;;;20.05;13.48;;;11.00;99.90;;;;;;2072764;28;20087;-71
2022/10/27 01:44:14;;;;;;;19.67;13.07;;;11.00;99.90;;;;;;2072513;28;20022;-72
2022/10/27 01:45:26;;;;;;;21.10;13.45;;;11.00;99.90;;;;;;2072525;28;20037;-71
2022/10/27 01:46:27;;;;;;;18.75;13.23;;;11.00;99.90;;;;;;2057354;28;20758;-71
2022/10/27 01:47:29;;;;;;;18.35;13.10;;;10.90;99.90;;;;;;2064258;28;20137;-70
2022/10/27 01:48:35;;;;;;;19.40;13.38;;;10.90;99.90;;;;;;2072837;28;20124;-71
2022/10/27 01:49:40;;;;;;;20.83;13.02;;;10.90;99.90;;;;;;2073018;28;20105;-71
2022/10/27 01:50:42;;;;;;;18.48;13.10;;;10.90;99.90;;;;;;2072973;28;20136;-71
2022/10/27 01:51:43;;;;;;;19.45;13.20;;;10.90;99.90;;;;;;2072433;28;20025;-71
2022/10/27 01:52:48;;;;;;;18.65;13.15;;;10.90;99.90;;;;;;2072870;28;20125;-72
2022/10/27 01:53:50;;;;;;;18.65;13.23;;;10.80;99.90;;;;;;2072450;28;20099;-71
2022/10/27 01:54:51;;;;;;;20.63;13.30;;;10.80;99.90;;;;;;2071872;28;20018;-71
2022/10/27 01:56:03;;;;;;;20.88;13.13;;;10.90;99.90;;;;;;2071998;28;20127;-72
2022/10/27 01:57:16;;;;;;;18.35;12.50;;;10.80;99.90;;;;;;2071929;28;20057;-71
2022/10/27 01:58:54;;;;;;;22.05;15.07;;;10.80;99.90;;;;;;2072210;28;20042;-72
2022/10/27 02:00:03;;;;;;;20.88;14.50;;;10.80;99.90;;;;;;2072857;28;20057;-71
2022/10/27 02:01:05;;;;;;;;;;;10.80;99.90;;;;;;2073658;28;20492;-72
2022/10/27 02:02:12;;;;;;;20.15;14.00;;;10.80;99.90;;;;;;2073008;28;19914;-72
2022/10/27 02:03:20;;;;;;;20.70;13.45;;;10.70;99.90;;;;;;2072962;28;20539;-71
2022/10/27 02:04:29;;;;;;;20.83;14.27;;;10.70;99.90;;;;;;2073620;28;20018;-71
2022/10/27 02:05:30;;;;;;;22.30;14.43;;;10.70;99.90;;;;;;2075754;28;20026;-71
2022/10/27 02:06:54;;;;;;;20.08;14.38;;;10.70;99.90;;;;;;2075511;28;20120;-71
2022/10/27 02:08:39;;;;;;;22.23;13.70;;;10.70;99.90;;;;;;2073563;28;20040;-71
2022/10/27 02:09:49;;;;;;;19.30;13.07;;;10.60;99.90;;;;;;2053077;28;20186;-71
2022/10/27 02:11:02;;;;;;;20.60;13.40;;;10.70;99.90;;;;;;2072502;28;20025;-71
2022/10/27 02:12:09;;;;;;;21.02;14.00;;;10.70;99.90;;;;;;2072074;28;20045;-72
2022/10/27 02:13:10;;;;;;;19.98;12.95;;;10.60;99.90;;;;;;2072300;28;20026;-71
2022/10/27 02:14:12;;;;;;;18.83;13.23;;;10.60;99.90;;;;;;2071411;28;20036;-71
2022/10/27 02:15:38;;;;;;;19.38;13.15;;;10.60;99.90;;;;;;2071753;28;20026;-71
2022/10/27 02:16:49;;;;;;;20.90;14.05;;;10.60;99.90;;;;;;2072537;28;20057;-71
2022/10/27 02:17:52;;;;;;;21.60;13.98;;;10.60;99.90;;;;;;2072731;28;20128;-71
2022/10/27 02:19:02;;;;;;;21.92;14.13;;;10.60;99.90;;;;;;2072366;28;20037;-71
2022/10/27 02:20:05;;;;;;;21.23;13.80;;;10.60;99.90;;;;;;2071799;28;20034;-71
2022/10/27 02:21:08;;;;;;;20.90;14.07;;;10.60;99.90;;;;;;2072034;28;20076;-73
2022/10/27 02:22:11;;;;;;;20.25;13.88;;;10.60;99.90;;;;;;2072706;28;20052;-70
2022/10/27 02:23:16;;;;;;;21.63;14.20;;;10.60;99.90;;;;;;2072950;28;20033;-71
2022/10/27 02:24:17;;;;;;;21.65;14.10;;;10.60;99.90;;;;;;2072492;28;20034;-71
2022/10/27 02:25:23;;;;;;;18.83;13.20;;;10.60;99.90;;;;;;2079797;28;20561;-73
2022/10/27 02:26:49;;;;;;;19.75;13.25;;;10.50;99.90;;;;;;2071708;28;20061;-71
2022/10/27 02:27:55;;;;;;;20.30;13.30;;;10.50;99.90;;;;;;2072187;28;20120;-72
2022/10/27 02:29:13;;;;;;;18.90;13.30;;;10.50;99.90;;;;;;2072470;28;20022;-71
2022/10/27 02:30:14;;;;;;;18.40;12.95;;;10.50;99.90;;;;;;2071880;28;20030;-71
2022/10/27 02:31:19;;;;;;;20.50;12.75;;;10.50;99.90;;;;;;2071778;28;20061;-71
2022/10/27 02:32:22;;;;;;;20.02;13.43;;;10.50;99.90;;;;;;2072054;28;20034;-71
2022/10/27 02:33:23;;;;;;;17.77;11.98;;;10.50;99.90;;;;;;2071740;28;20025;-72
2022/10/27 02:34:25;;;;;;;18.98;13.10;;;10.40;99.90;;;;;;2072400;28;20055;-72
2022/10/27 02:35:26;;;;;;;19.67;13.15;;;10.50;99.90;;;;;;2072695;28;20057;-71
2022/10/27 02:36:27;;;;;;;19.55;13.10;;;10.50;99.90;;;;;;2072493;28;20030;-71
2022/10/27 02:37:37;;;;;;;18.45;13.00;;;10.40;99.90;;;;;;2072203;28;20573;-71
2022/10/27 02:38:37;;;;;;;22.63;13.43;;;10.50;99.90;;;;;;2072078;28;20057;-71
2022/10/27 02:39:38;;;;;;;19.48;13.40;;;10.40;99.90;;;;;;2072337;28;20069;-71
2022/10/27 02:40:38;;;;;;;19.35;13.07;;;10.50;99.90;;;;;;2072171;28;20163;-71
2022/10/27 02:41:39;;;;;;;19.45;13.45;;;10.40;99.90;;;;;;2071186;28;20401;-72
2022/10/27 02:42:40;;;;;;;20.60;13.60;;;10.40;99.90;;;;;;2071737;28;20164;-71
2022/10/27 02:43:40;;;;;;;20.98;13.43;;;10.40;99.90;;;;;;2079660;28;20036;-71
2022/10/27 02:44:41;;;;;;;20.15;13.43;;;10.40;99.90;;;;;;2072208;28;20034;-71
2022/10/27 02:45:42;;;;;;;19.63;13.50;;;10.40;99.90;;;;;;2072084;28;20022;-71
2022/10/27 02:46:42;;;;;;;20.45;13.82;;;10.40;99.90;;;;;;2072235;28;20030;-71
2022/10/27 02:47:43;;;;;;;20.30;13.88;;;10.40;99.90;;;;;;2072122;28;20128;-71
2022/10/27 02:48:43;;;;;;;20.25;13.68;;;10.40;99.90;;;;;;2072043;28;20026;-72
2022/10/27 02:49:44;;;;;;;21.05;14.25;;;10.40;99.90;;;;;;2072022;28;20018;-71
2022/10/27 02:50:45;;;;;;;18.00;13.07;;;10.40;99.90;;;;;;2071673;28;20053;-71
2022/10/27 02:51:45;;;;;;;18.60;13.20;;;10.30;99.90;;;;;;2070940;28;20104;-70
2022/10/27 02:52:46;;;;;;;20.52;13.60;;;10.40;99.90;;;;;;2072050;28;20030;-71
2022/10/27 02:53:46;;;;;;;23.50;13.82;;;10.30;99.90;;;;;;2072087;28;20030;-71
2022/10/27 02:54:47;;;;;;;19.83;13.70;;;10.30;99.90;;;;;;2071911;28;20499;-71
2022/10/27 02:55:48;;;;;;;21.60;14.50;;;10.40;99.90;;;;;;2079392;28;20084;-71
2022/10/27 02:56:48;;;;;;;20.25;14.13;;;10.30;99.90;;;;;;2079600;28;20585;-71
2022/10/27 02:57:49;;;;;;;20.30;13.90;;;10.30;99.90;;;;;;2071955;28;20553;-71
2022/10/27 02:58:50;;;;;;;19.90;13.20;;;10.30;99.90;;;;;;2072096;28;20113;-72
2022/10/27 02:59:50;;;;;;;18.85;13.30;;;10.30;99.90;;;;;;2071235;28;20077;-71
2022/10/27 03:00:55;;;;;;;19.92;13.63;;;10.30;99.90;;;;;;2070915;28;20068;-71
2022/10/27 03:01:56;;;;;;;20.35;13.40;;;10.30;99.90;;;;;;2071010;28;20105;-71
2022/10/27 03:02:56;;;;;;;19.75;13.95;;;10.30;99.90;;;;;;2063226;28;20594;-72
2022/10/27 03:03:57;;;;;;;19.63;13.27;;;10.30;99.90;;;;;;2063277;28;20045;-72
2022/10/27 03:04:58;;;;;;;19.52;13.70;;;10.30;99.90;;;;;;2071229;28;20064;-71
2022/10/27 03:05:58;;;;;;;19.27;13.43;;;10.30;99.90;;;;;;2072100;28;20524;-71
2022/10/27 03:06:59;;;;;;;20.13;13.68;;;10.20;99.90;;;;;;2079359;28;20035;-71
2022/10/27 03:07:59;;;;;;;20.05;13.43;;;10.20;99.90;;;;;;2079343;28;20055;-72
2022/10/27 03:09:00;;;;;;;19.08;13.23;;;10.20;99.90;;;;;;2079352;28;20026;-71
2022/10/27 03:10:01;;;;;;;19.50;13.18;;;10.20;99.90;;;;;;2079162;28;20057;-72
2022/10/27 03:11:02;;;;;;;20.20;13.68;;;10.20;99.90;;;;;;2071729;28;20041;-71
2022/10/27 03:12:02;;;;;;;17.85;12.93;;;10.20;99.90;;;;;;2079145;28;20034;-71
2022/10/27 03:13:03;;;;;;;20.58;14.00;;;10.20;99.90;;;;;;2079786;28;20032;-70
2022/10/27 03:14:04;;;;;;;19.90;13.80;;;10.20;99.90;;;;;;2071921;28;20045;-70
2022/10/27 03:15:05;;;;;;;19.10;13.23;;;10.20;99.90;;;;;;2071679;28;20022;-71
2022/10/27 03:16:06;;;;;;;19.83;13.40;;;10.20;99.90;;;;;;2071676;28;20026;-70
2022/10/27 03:17:07;;;;;;;19.17;13.65;;;10.20;99.90;;;;;;2072209;28;20452;-70
2022/10/27 03:18:08;;;;;;;20.65;14.00;;;10.20;99.90;;;;;;2071357;28;20599;-71
2022/10/27 03:19:08;;;;;;;20.45;13.88;;;10.20;99.90;;;;;;2063540;28;20077;-71
2022/10/27 03:20:09;;;;;;;19.38;13.30;;;10.20;99.90;;;;;;2071800;28;20033;-71
2022/10/27 03:21:10;;;;;;;22.52;13.55;;;10.20;99.90;;;;;;2071902;28;20065;-70
2022/10/27 03:22:10;;;;;;;18.55;13.77;;;10.20;99.90;;;;;;2062822;28;20037;-71
2022/10/27 03:23:11;;;;;;;18.58;13.48;;;10.20;99.90;;;;;;2062959;28;20177;-71
2022/10/27 03:24:12;;;;;;;19.73;14.05;;;10.20;99.90;;;;;;2071803;28;20026;-71
2022/10/27 03:25:14;;;;;;;18.63;13.13;;;10.20;99.90;;;;;;2071820;28;20053;-70
2022/10/27 03:26:14;;;;;;;22.02;14.20;;;10.10;99.90;;;;;;2080260;28;20795;-70
2022/10/27 03:27:15;;;;;;;20.60;13.77;;;10.10;99.90;;;;;;2080840;28;20043;-70
2022/10/27 03:28:16;;;;;;;19.75;14.00;;;10.10;99.90;;;;;;2073314;28;20030;-71
2022/10/27 03:29:16;;;;;;;18.25;13.32;;;10.10;99.90;;;;;;2073320;28;20116;-71
2022/10/27 03:30:17;;;;;;;20.42;14.68;;;10.10;99.90;;;;;;2072804;28;20167;-71
2022/10/27 03:31:18;;;;;;;23.23;15.07;;;10.10;99.90;;;;;;2064661;28;20555;-71
2022/10/27 03:32:19;;;;;;;22.15;14.45;;;10.10;99.90;;;;;;2072528;28;20032;-71
2022/10/27 03:33:19;;;;;;;23.27;15.07;;;10.10;99.90;;;;;;2073616;28;20532;-71
2022/10/27 03:34:20;;;;;;;21.20;14.55;;;10.10;99.90;;;;;;2073070;28;20029;-71
2022/10/27 03:35:20;;;;;;;28.17;16.25;;;10.10;99.90;;;;;;2072816;28;20096;-70
2022/10/27 03:36:21;;;;;;;24.92;16.02;;;10.10;99.90;;;;;;2072733;28;20733;-70
2022/10/27 03:37:22;;;;;;;23.00;15.50;;;10.10;99.90;;;;;;2089170;28;20029;-72
2022/10/27 03:38:22;;;;;;;24.13;15.32;;;10.10;99.90;;;;;;2089303;28;20199;-71
2022/10/27 03:39:23;;;;;;;22.70;15.05;;;10.10;99.90;;;;;;2073313;28;20552;-70
2022/10/27 03:40:24;;;;;;;23.38;15.23;;;10.10;99.90;;;;;;2073457;28;20061;-71
2022/10/27 03:41:24;;;;;;;22.48;15.13;;;10.10;99.90;;;;;;2072391;28;20037;-70
2022/10/27 03:42:25;;;;;;;22.17;14.50;;;10.10;99.90;;;;;;2072805;28;20037;-70
2022/10/27 03:43:26;;;;;;;21.33;14.10;;;10.10;99.90;;;;;;2073089;28;20053;-70
2022/10/27 03:44:26;;;;;;;23.60;15.20;;;10.10;99.90;;;;;;2072662;28;20232;-70
2022/10/27 03:45:27;;;;;;;21.83;14.65;;;10.10;99.90;;;;;;2072805;28;20026;-70
2022/10/27 03:46:28;;;;;;;22.27;15.00;;;10.10;99.90;;;;;;2073109;28;20049;-71
2022/10/27 03:47:29;;;;;;;21.35;14.55;;;10.10;99.90;;;;;;2072800;28;20026;-70
2022/10/27 03:48:29;;;;;;;21.55;14.48;;;10.00;99.90;;;;;;2073439;28;20493;-70
2022/10/27 03:49:30;;;;;;;19.65;13.95;;;10.10;99.90;;;;;;2073335;28;20128;-70
2022/10/27 03:50:31;;;;;;;21.08;13.68;;;10.00;99.90;;;;;;2072678;28;20025;-71
2022/10/27 03:51:32;;;;;;;21.63;13.77;;;10.00;99.90;;;;;;2072429;28;20025;-72
2022/10/27 03:52:33;;;;;;;21.60;14.27;;;10.00;99.90;;;;;;2073423;28;20825;-71
2022/10/27 03:53:34;;;;;;;20.58;14.20;;;10.00;99.90;;;;;;2073473;28;20030;-70
2022/10/27 03:54:34;;;;;;;21.55;13.85;;;10.00;99.90;;;;;;2073056;28;20057;-70
2022/10/27 03:55:35;;;;;;;20.73;14.55;;;10.00;99.90;;;;;;2073471;28;20030;-70
2022/10/27 03:56:36;;;;;;;21.92;14.98;;;10.00;99.90;;;;;;2072376;28;20026;-70
2022/10/27 03:57:36;;;;;;;20.92;13.90;;;10.00;99.90;;;;;;2072667;28;20087;-71
2022/10/27 03:58:37;;;;;;;21.33;14.35;;;10.00;99.90;;;;;;2072412;28;20037;-73
2022/10/27 03:59:38;;;;;;;21.35;13.50;;;10.00;99.90;;;;;;2072650;28;20030;-70
2022/10/27 04:00:39;;;;;;;20.35;13.80;;;10.00;99.90;;;;;;2073271;28;20108;-71
2022/10/27 04:01:41;;;;;;;20.60;13.23;;;10.00;99.90;;;;;;2073241;28;20670;-70
2022/10/27 04:02:42;;;;;;;20.83;14.30;;;10.00;99.90;;;;;;2072649;28;20547;-71
2022/10/27 04:03:42;;;;;;;21.15;13.73;;;10.00;99.90;;;;;;2072722;28;20029;-70
2022/10/27 04:04:43;;;;;;;25.25;15.75;;;10.00;99.90;;;;;;2073731;28;20034;-71
2022/10/27 04:05:48;;;;;;;28.70;17.08;;;10.10;99.90;;;;;;2073621;28;20040;-70
2022/10/27 04:06:48;;;;;;;25.58;15.75;;;10.20;99.90;;;;;;2082146;28;20439;-71
2022/10/27 04:07:49;;;;;;;24.42;15.65;;;10.10;99.90;;;;;;2081905;28;20057;-71
2022/10/27 04:08:50;;;;;;;23.25;14.68;;;10.20;99.90;;;;;;2075176;28;20464;-71
2022/10/27 04:09:50;;;;;;;22.15;14.88;;;10.10;99.90;;;;;;2074843;28;20084;-71
2022/10/27 04:10:51;;;;;;;22.50;14.95;;;10.10;99.90;;;;;;2074594;28;20093;-72
2022/10/27 04:11:52;;;;;;;20.25;13.73;;;10.10;99.90;;;;;;2072966;28;20086;-71
2022/10/27 04:12:54;;;;;;;21.55;14.35;;;10.10;99.90;;;;;;2072725;28;20588;-70
2022/10/27 04:13:55;;;;;;;19.42;13.95;;;10.10;99.90;;;;;;2072613;28;20041;-71
2022/10/27 04:14:56;;;;;;;20.17;13.30;;;10.10;99.90;;;;;;2072064;28;20032;-70
2022/10/27 04:16:00;;;;;;;22.13;14.27;;;10.10;99.90;;;;;;2064240;28;20113;-71
2022/10/27 04:17:01;;;;;;;19.30;14.10;;;10.10;99.90;;;;;;2072648;28;20029;-70
2022/10/27 04:18:01;;;;;;;18.35;13.65;;;10.10;99.90;;;;;;2072922;28;20064;-71
2022/10/27 04:19:02;;;;;;;19.83;13.60;;;10.10;99.90;;;;;;2072483;28;20472;-70
2022/10/27 04:20:03;;;;;;;22.25;13.73;;;10.00;99.90;;;;;;2072619;28;20038;-73
2022/10/27 04:21:05;;;;;;;21.67;14.23;;;10.00;99.90;;;;;;2080764;28;20041;-70
2022/10/27 04:22:05;;;;;;;20.17;14.05;;;10.00;99.90;;;;;;2080163;28;20041;-72
2022/10/27 04:23:06;;;;;;;20.55;14.65;;;10.00;99.90;;;;;;2072568;28;20088;-71
2022/10/27 04:24:07;;;;;;;22.63;14.25;;;10.00;99.90;;;;;;2072104;28;20030;-70
2022/10/27 04:25:07;;;;;;;22.85;14.60;;;10.00;99.90;;;;;;2073042;28;20030;-71
2022/10/27 04:26:08;;;;;;;22.88;14.95;;;10.00;99.90;;;;;;2072748;28;20038;-70
2022/10/27 04:27:09;;;;;;;23.10;14.93;;;10.00;99.90;;;;;;2073104;28;20030;-71
2022/10/27 04:28:09;;;;;;;21.95;14.48;;;10.00;99.90;;;;;;2073158;28;20049;-71
2022/10/27 04:29:10;;;;;;;22.00;14.77;;;10.00;99.90;;;;;;2072446;28;20034;-70
2022/10/27 04:30:11;;;;;;;20.85;14.80;;;10.00;99.90;;;;;;2064069;28;20026;-69
2022/10/27 04:31:12;;;;;;;25.88;15.63;;;10.00;99.90;;;;;;2072234;28;20125;-71
2022/10/27 04:32:12;;;;;;;26.75;16.67;;;10.00;99.90;;;;;;2072716;28;20026;-71
2022/10/27 04:33:13;;;;;;;24.67;16.00;;;10.00;99.90;;;;;;2072921;28;20038;-72
2022/10/27 04:34:14;;;;;;;32.50;17.85;;;10.00;99.90;;;;;;2080351;28;20024;-72
2022/10/27 04:35:14;;;;;;;27.25;18.10;;;10.00;99.90;;;;;;2081741;28;20025;-72
2022/10/27 04:36:15;;;;;;;25.77;16.92;;;10.00;99.90;;;;;;2082610;28;20041;-72
2022/10/27 04:37:16;;;;;;;25.40;16.70;;;10.00;99.90;;;;;;2081439;28;20021;-71
2022/10/27 04:38:16;;;;;;;28.10;17.75;;;10.00;99.90;;;;;;2073880;28;20056;-71
2022/10/27 04:39:17;;;;;;;26.80;17.52;;;10.00;99.90;;;;;;2072958;28;20058;-71
2022/10/27 04:40:17;;;;;;;30.35;17.77;;;10.00;99.90;;;;;;2073098;28;20026;-71
2022/10/27 04:41:18;;;;;;;25.13;16.65;;;10.00;99.90;;;;;;2073610;28;20463;-71
2022/10/27 04:42:19;;;;;;;26.75;16.65;;;9.90;99.90;;;;;;2073361;28;20042;-71
2022/10/27 04:43:19;;;;;;;25.98;16.92;;;10.00;99.90;;;;;;2072924;28;20030;-73
2022/10/27 04:44:20;;;;;;;25.35;16.23;;;9.90;99.90;;;;;;2072886;28;20037;-71
2022/10/27 04:45:21;;;;;;;26.08;16.88;;;9.90;99.90;;;;;;2073357;28;20028;-73
2022/10/27 04:46:22;;;;;;;28.00;16.17;;;9.90;99.90;;;;;;2073209;28;20029;-72
2022/10/27 04:47:22;;;;;;;25.38;15.73;;;9.90;99.90;;;;;;2080368;28;20181;-72
2022/10/27 04:48:23;;;;;;;25.67;16.15;;;9.90;99.90;;;;;;2072615;28;20026;-72
2022/10/27 04:49:23;;;;;;;20.90;14.90;;;9.90;99.90;;;;;;2072248;28;20033;-71
2022/10/27 04:50:24;;;;;;;23.13;15.55;;;9.90;99.90;;;;;;2073118;28;20109;-72
2022/10/27 04:51:25;;;;;;;30.40;18.23;;;9.90;99.90;;;;;;2072635;28;20025;-73
2022/10/27 04:52:26;;;;;;;24.85;16.63;;;9.90;99.90;;;;;;2072858;28;20558;-72
2022/10/27 04:53:27;;;;;;;26.77;16.55;;;9.90;99.90;;;;;;2072809;28;20096;-72
2022/10/27 04:54:28;;;;;;;23.92;16.58;;;9.90;99.90;;;;;;2072947;28;20080;-73
2022/10/27 04:55:31;;;;;;;26.02;16.85;;;9.90;99.90;;;;;;2072238;28;20037;-73
2022/10/27 04:56:31;;;;;;;22.98;15.98;;;9.90;99.90;;;;;;2072177;28;20025;-71
2022/10/27 04:57:32;;;;;;;27.20;16.88;;;9.90;99.90;;;;;;2072981;28;20042;-72
2022/10/27 04:58:33;;;;;;;26.13;16.55;;;9.90;99.90;;;;;;2072365;28;20034;-72
2022/10/27 04:59:34;;;;;;;27.48;16.98;;;9.90;99.90;;;;;;2072111;28;20707;-71
2022/10/27 05:00:34;;;;;;;26.17;16.80;;;9.90;99.90;;;;;;2073078;28;20030;-71
2022/10/27 05:01:35;;;;;;;26.20;16.38;;;9.80;99.90;;;;;;2072490;28;20415;-72
2022/10/27 05:02:36;;;;;;;24.30;16.60;;;9.80;99.90;;;;;;2073020;28;20033;-71
2022/10/27 05:03:36;;;;;;;24.50;16.40;;;9.80;99.90;;;;;;2072168;28;20096;-72
2022/10/27 05:04:37;;;;;;;28.73;16.30;;;9.80;99.90;;;;;;2063965;28;20034;-71
2022/10/27 05:05:38;;;;;;;26.67;16.80;;;9.80;99.90;;;;;;2072121;28;20029;-71
2022/10/27 05:06:38;;;;;;;24.92;15.40;;;9.80;99.90;;;;;;2080428;28;20028;-71
2022/10/27 05:07:39;;;;;;;24.08;15.82;;;9.80;99.90;;;;;;2080413;28;20561;-73
2022/10/27 05:08:40;;;;;;;24.42;16.25;;;9.80;99.90;;;;;;2080810;28;20025;-71
2022/10/27 05:09:40;;;;;;;23.45;16.02;;;9.80;99.90;;;;;;2064183;28;20015;-71
2022/10/27 05:10:41;;;;;;;26.25;16.58;;;9.80;99.90;;;;;;2063856;28;20035;-72
2022/10/27 05:11:41;;;;;;;24.73;16.45;;;9.70;99.90;;;;;;2072122;28;20022;-72
2022/10/27 05:12:42;;;;;;;23.55;15.40;;;9.80;99.90;;;;;;2072800;28;20477;-71
2022/10/27 05:13:43;;;;;;;26.08;17.10;;;9.70;99.90;;;;;;2072772;28;20645;-71
2022/10/27 05:14:44;;;;;;;27.38;16.60;;;9.80;99.90;;;;;;2072953;28;20026;-71
2022/10/27 05:15:44;;;;;;;26.13;16.30;;;9.80;99.90;;;;;;2072761;28;20061;-71
2022/10/27 05:16:45;;;;;;;23.85;15.93;;;9.80;99.90;;;;;;2073133;28;20109;-70
2022/10/27 05:17:46;;;;;;;25.55;16.45;;;9.80;99.90;;;;;;2072870;28;20578;-71
2022/10/27 05:18:46;;;;;;;25.80;17.17;;;9.80;99.90;;;;;;2072738;28;20662;-71
2022/10/27 05:19:47;;;;;;;26.77;16.58;;;9.80;99.90;;;;;;2071741;28;20037;-70
2022/10/27 05:20:47;;;;;;;27.17;16.75;;;9.80;99.90;;;;;;2072068;28;20407;-71
2022/10/27 05:21:48;;;;;;;25.42;16.92;;;9.80;99.90;;;;;;2072662;28;20041;-70